Time;durP1;ratioP1;P1;durP2;ratioP2;P2;SDS_P1;SDS_P2;PMS_P1;PMS_P2;Temp;Humidity;BMP_temperature;BMP_pressure;BME280_temperature;BME280_humidity;BME280_pressure;Samples;Min_cycle;Max_cycle;Signal;HPM_P1;HPM_P2
2021/11/26 00:00:43;;;;;;;0.90;0.90;;;-5.20;99.90;;;;;;5010940;28;20261;-76
2021/11/26 00:03:09;;;;;;;0.88;0.88;;;-5.20;99.90;;;;;;5013936;28;20208;-76
2021/11/26 00:05:34;;;;;;;0.90;0.90;;;-5.10;99.90;;;;;;5012416;28;20229;-76
2021/11/26 00:08:00;;;;;;;0.95;0.95;;;-5.20;99.90;;;;;;5015800;28;20222;-76
2021/11/26 00:10:26;;;;;;;0.80;0.80;;;-5.20;99.90;;;;;;5032335;28;20210;-77
2021/11/26 00:12:55;;;;;;;0.85;0.85;;;-5.20;99.90;;;;;;5032611;28;20716;-76
2021/11/26 00:17:55;;;;;;;0.80;0.80;;;-5.20;99.90;;;;;;5032087;28;20201;-77
2021/11/26 00:20:21;;;;;;;0.90;0.90;;;-5.30;99.90;;;;;;5031898;28;20664;-76
2021/11/26 00:22:46;;;;;;;0.90;0.90;;;-5.30;99.90;;;;;;5014299;28;20194;-76
2021/11/26 00:25:13;;;;;;;0.80;0.80;;;-5.30;99.90;;;;;;5013985;28;20209;-76
2021/11/26 00:27:39;;;;;;;0.90;0.90;;;-5.30;99.90;;;;;;5031985;28;20202;-77
2021/11/26 00:30:05;;;;;;;0.80;0.80;;;-5.40;99.90;;;;;;5031885;28;20236;-76
2021/11/26 00:32:31;;;;;;;0.90;0.90;;;-5.40;99.90;;;;;;5015210;28;20723;-78
2021/11/26 00:34:57;;;;;;;0.90;0.90;;;-5.50;99.90;;;;;;5031849;28;20194;-76
2021/11/26 00:37:23;;;;;;;0.70;0.70;;;-5.50;99.90;;;;;;5031653;28;20202;-76
2021/11/26 00:39:48;;;;;;;0.80;0.80;;;-5.50;99.90;;;;;;5031642;28;20202;-76
2021/11/26 00:42:15;;;;;;;0.93;0.93;;;-5.50;99.90;;;;;;5032913;28;20264;-76
2021/11/26 00:44:40;;;;;;;0.90;0.90;;;-5.50;99.90;;;;;;5032879;28;20202;-76
2021/11/26 00:47:06;;;;;;;0.90;0.90;;;-5.70;99.90;;;;;;5032866;28;20339;-76
2021/11/26 00:49:32;;;;;;;0.90;0.90;;;-5.70;99.90;;;;;;5032722;28;20280;-76
2021/11/26 00:51:58;;;;;;;0.93;0.93;;;-5.70;99.90;;;;;;5031521;28;20201;-76
2021/11/26 00:54:23;;;;;;;0.90;0.90;;;-5.80;99.90;;;;;;5031447;28;20209;-76
2021/11/26 00:56:49;;;;;;;0.90;0.90;;;-5.80;99.90;;;;;;5032203;28;20201;-77
2021/11/26 00:59:15;;;;;;;0.90;0.90;;;-5.80;99.90;;;;;;5014000;28;20243;-77
2021/11/26 01:01:41;;;;;;;0.90;0.90;;;-5.80;99.90;;;;;;5031498;28;20649;-77
2021/11/26 01:04:06;;;;;;;0.90;0.90;;;-5.90;99.90;;;;;;5031311;28;20292;-77
2021/11/26 01:06:32;;;;;;;0.90;0.90;;;-5.90;99.90;;;;;;5014594;28;20205;-76
2021/11/26 01:08:59;;;;;;;0.90;0.90;;;-5.90;99.90;;;;;;5031160;28;20329;-77
2021/11/26 01:11:25;;;;;;;0.80;0.80;;;-5.90;99.90;;;;;;5032242;28;20226;-77
2021/11/26 01:13:51;;;;;;;0.90;0.90;;;-5.90;99.90;;;;;;5031273;28;20275;-77
2021/11/26 01:16:17;;;;;;;0.90;0.90;;;-5.90;99.90;;;;;;5014611;28;20206;-76
2021/11/26 01:18:43;;;;;;;1.00;1.00;;;-5.80;99.90;;;;;;5031095;28;20606;-76
2021/11/26 01:21:09;;;;;;;0.90;0.90;;;-5.80;99.90;;;;;;5031131;28;20221;-76
2021/11/26 01:23:36;;;;;;;0.80;0.80;;;-5.80;99.90;;;;;;5031171;28;20707;-76
2021/11/26 01:26:03;;;;;;;0.73;0.73;;;-5.90;99.90;;;;;;5014540;28;20254;-76
2021/11/26 01:28:28;;;;;;;0.87;0.87;;;-5.90;99.90;;;;;;5030983;28;20202;-76
2021/11/26 01:30:54;;;;;;;0.90;0.90;;;-5.90;99.90;;;;;;5031185;28;20267;-75
2021/11/26 01:33:21;;;;;;;0.90;0.90;;;-5.90;99.90;;;;;;5013208;28;20206;-76
2021/11/26 01:35:51;;;;;;;1.00;1.00;;;-5.90;99.90;;;;;;5012677;28;20661;-76
2021/11/26 01:38:17;;;;;;;0.80;0.80;;;-5.90;99.90;;;;;;5032428;28;20208;-76
2021/11/26 01:40:43;;;;;;;0.90;0.90;;;-5.90;99.90;;;;;;5035504;28;20289;-75
2021/11/26 01:43:11;;;;;;;0.90;0.90;;;-6.00;99.90;;;;;;5017394;28;20352;-76
2021/11/26 01:45:52;;;;;;;0.90;0.90;;;-6.00;99.90;;;;;;5001664;28;20349;-77
2021/11/26 01:48:20;;;;;;;1.00;1.00;;;-6.00;99.90;;;;;;5018638;28;20206;-76
2021/11/26 01:50:47;;;;;;;1.00;1.00;;;-6.00;99.90;;;;;;5035471;28;20641;-76
2021/11/26 01:53:12;;;;;;;0.90;0.90;;;-6.10;99.90;;;;;;5016966;28;20574;-74
2021/11/26 01:55:39;;;;;;;0.93;0.93;;;-6.10;99.90;;;;;;5035277;28;20214;-77
2021/11/26 01:58:04;;;;;;;0.90;0.90;;;-6.20;99.90;;;;;;5018260;28;20272;-77
2021/11/26 02:00:33;;;;;;;0.97;0.97;;;-6.20;99.90;;;;;;5034896;28;20206;-76
2021/11/26 02:02:59;;;;;;;0.97;0.97;;;-6.30;99.90;;;;;;5034712;28;20206;-76
2021/11/26 02:05:25;;;;;;;0.90;0.90;;;-6.30;99.90;;;;;;5034542;28;20202;-75
2021/11/26 02:07:50;;;;;;;0.90;0.90;;;-6.30;99.90;;;;;;5034383;28;20557;-76
2021/11/26 02:10:16;;;;;;;0.90;0.90;;;-6.30;99.90;;;;;;5016815;28;20301;-76
2021/11/26 02:12:42;;;;;;;0.90;0.90;;;-6.30;99.90;;;;;;5034435;28;20665;-77
2021/11/26 02:15:09;;;;;;;1.00;1.00;;;-6.30;99.90;;;;;;5017998;28;20276;-76
2021/11/26 02:17:35;;;;;;;0.90;0.90;;;-6.40;99.90;;;;;;5016438;28;20202;-76
2021/11/26 02:20:12;;;;;;;0.90;0.90;;;-6.40;99.90;;;;;;5035714;28;20198;-76
2021/11/26 02:22:38;;;;;;;1.00;1.00;;;-6.30;99.90;;;;;;5016423;28;20213;-76
2021/11/26 02:25:06;;;;;;;0.90;0.90;;;-6.30;99.90;;;;;;5033810;28;20198;-75
2021/11/26 02:27:32;;;;;;;1.00;1.00;;;-6.30;99.90;;;;;;5034107;28;20728;-77
2021/11/26 02:29:58;;;;;;;0.90;0.90;;;-6.30;99.90;;;;;;5034284;28;20328;-75
2021/11/26 02:32:24;;;;;;;0.93;0.93;;;-6.30;99.90;;;;;;5032029;28;20230;-76
2021/11/26 02:34:52;;;;;;;0.90;0.90;;;-6.40;99.90;;;;;;5016333;28;20636;-77
2021/11/26 02:37:18;;;;;;;0.90;0.90;;;-6.40;99.90;;;;;;5016420;28;20673;-75
2021/11/26 02:39:44;;;;;;;0.90;0.90;;;-6.30;99.90;;;;;;5016467;28;20289;-75
2021/11/26 02:42:09;;;;;;;0.90;0.90;;;-6.30;99.90;;;;;;5035377;28;20202;-76
2021/11/26 02:44:35;;;;;;;1.00;1.00;;;-6.30;99.90;;;;;;5016055;28;20611;-77
2021/11/26 02:47:01;;;;;;;0.90;0.90;;;-6.30;99.90;;;;;;5034166;28;20234;-77
2021/11/26 02:49:26;;;;;;;0.90;0.90;;;-6.30;99.90;;;;;;5015920;28;20206;-76
2021/11/26 02:51:52;;;;;;;0.80;0.80;;;-6.30;99.90;;;;;;5034139;28;20213;-76
2021/11/26 02:54:17;;;;;;;0.90;0.90;;;-6.20;99.90;;;;;;5035062;28;20210;-76
2021/11/26 02:56:43;;;;;;;1.00;1.00;;;-6.20;99.90;;;;;;5017236;28;20203;-76
2021/11/26 02:59:09;;;;;;;1.00;1.00;;;-6.20;99.90;;;;;;5015845;28;20259;-76
2021/11/26 03:01:34;;;;;;;0.90;0.90;;;-6.20;99.90;;;;;;5031152;28;20345;-76
2021/11/26 03:04:00;;;;;;;0.90;0.90;;;-6.20;99.90;;;;;;5033690;28;20213;-76
2021/11/26 03:06:26;;;;;;;0.80;0.80;;;-6.20;99.90;;;;;;5033142;28;20210;-77
2021/11/26 03:08:51;;;;;;;0.90;0.90;;;-6.30;99.90;;;;;;5033443;28;20718;-76
2021/11/26 03:11:17;;;;;;;0.90;0.90;;;-6.30;99.90;;;;;;5033496;28;20240;-76
2021/11/26 03:13:43;;;;;;;0.90;0.90;;;-6.30;99.90;;;;;;5033414;28;20681;-76
2021/11/26 03:16:09;;;;;;;0.80;0.80;;;-6.30;99.90;;;;;;5033514;28;20575;-76
2021/11/26 03:18:36;;;;;;;0.90;0.90;;;-6.30;99.90;;;;;;5016567;28;20676;-76
2021/11/26 03:21:02;;;;;;;0.80;0.80;;;-6.30;99.90;;;;;;5033196;28;20209;-75
2021/11/26 03:23:28;;;;;;;0.90;0.90;;;-6.30;99.90;;;;;;5015382;28;20220;-76
2021/11/26 03:25:53;;;;;;;0.90;0.90;;;-6.40;99.90;;;;;;5034506;28;20290;-75
2021/11/26 03:28:19;;;;;;;1.00;1.00;;;-6.30;99.90;;;;;;5032917;28;20206;-75
2021/11/26 03:30:45;;;;;;;0.90;0.90;;;-6.30;99.90;;;;;;5034432;28;20708;-75
2021/11/26 03:33:11;;;;;;;0.87;0.87;;;-6.30;99.90;;;;;;5015247;28;20698;-74
2021/11/26 03:35:37;;;;;;;0.90;0.90;;;-6.40;99.90;;;;;;5016037;28;20289;-74
2021/11/26 03:38:03;;;;;;;0.90;0.90;;;-6.40;99.90;;;;;;5033320;28;20198;-74
2021/11/26 03:40:29;;;;;;;1.13;1.13;;;-6.40;99.90;;;;;;5033226;28;20244;-75
2021/11/26 03:42:57;;;;;;;0.90;0.90;;;-6.40;99.90;;;;;;5034212;28;20211;-75
2021/11/26 03:45:30;;;;;;;0.90;0.90;;;-6.40;99.90;;;;;;5032709;28;20692;-75
2021/11/26 03:47:57;;;;;;;0.93;0.93;;;-6.50;99.90;;;;;;5016057;28;20207;-75
2021/11/26 03:50:24;;;;;;;2.50;2.03;;;-6.50;99.90;;;;;;5016158;28;20232;-75
2021/11/26 03:52:50;;;;;;;0.90;0.90;;;-6.50;99.90;;;;;;5014775;28;20202;-75
2021/11/26 03:55:20;;;;;;;0.87;0.87;;;-6.50;99.90;;;;;;5032674;28;20202;-76
2021/11/26 03:57:47;;;;;;;0.80;0.80;;;-6.40;99.90;;;;;;5032710;28;20505;-76
2021/11/26 04:00:14;;;;;;;1.00;1.00;;;-6.40;99.90;;;;;;5014615;28;20646;-76
2021/11/26 04:02:41;;;;;;;0.93;0.93;;;-6.50;99.90;;;;;;5030908;28;20586;-75
2021/11/26 04:05:07;;;;;;;1.00;1.00;;;-6.50;99.90;;;;;;5032534;28;20576;-75
2021/11/26 04:07:33;;;;;;;0.87;0.87;;;-6.50;99.90;;;;;;5032039;28;20210;-75
2021/11/26 04:10:00;;;;;;;0.90;0.90;;;-6.50;99.90;;;;;;5032320;28;20217;-75
2021/11/26 04:12:27;;;;;;;0.90;0.90;;;-6.50;99.90;;;;;;5033413;28;20687;-76
2021/11/26 04:14:54;;;;;;;0.90;0.90;;;-6.40;99.90;;;;;;5032113;28;20217;-75
2021/11/26 04:17:24;;;;;;;0.80;0.80;;;-6.50;99.90;;;;;;5033246;28;20190;-75
2021/11/26 04:19:50;;;;;;;0.80;0.80;;;-6.50;99.90;;;;;;5032124;28;20245;-76
2021/11/26 04:22:16;;;;;;;0.80;0.80;;;-6.50;99.90;;;;;;5033195;28;20202;-76
2021/11/26 04:24:42;;;;;;;0.97;0.97;;;-6.50;99.90;;;;;;5030887;28;20210;-76
2021/11/26 04:27:08;;;;;;;0.83;0.83;;;-6.60;99.90;;;;;;5031879;28;20209;-76
2021/11/26 04:29:33;;;;;;;0.80;0.80;;;-6.60;99.90;;;;;;5031817;28;20202;-76
2021/11/26 04:31:59;;;;;;;0.90;0.90;;;-6.60;99.90;;;;;;5032026;28;20669;-74
2021/11/26 04:34:25;;;;;;;1.00;1.00;;;-6.60;99.90;;;;;;5031720;28;20267;-75
2021/11/26 04:36:50;;;;;;;0.80;0.80;;;-6.70;99.90;;;;;;5014469;28;20202;-75
2021/11/26 04:39:16;;;;;;;0.90;0.90;;;-6.70;99.90;;;;;;5031834;28;20216;-76
2021/11/26 04:41:42;;;;;;;0.90;0.90;;;-6.70;99.90;;;;;;5015144;28;20206;-75
2021/11/26 04:44:08;;;;;;;1.00;1.00;;;-6.70;99.90;;;;;;5031655;28;20210;-74
2021/11/26 04:46:33;;;;;;;0.90;0.90;;;-6.70;99.90;;;;;;5032050;28;20206;-75
2021/11/26 04:48:59;;;;;;;1.00;1.00;;;-6.70;99.90;;;;;;5031617;28;20220;-75
2021/11/26 04:51:25;;;;;;;1.23;1.20;;;-6.80;99.90;;;;;;5032671;28;20214;-75
2021/11/26 04:53:50;;;;;;;0.90;0.90;;;-6.80;99.90;;;;;;5031501;28;20276;-75
2021/11/26 04:56:16;;;;;;;0.90;0.90;;;-6.80;99.90;;;;;;5031415;28;20206;-76
2021/11/26 04:58:42;;;;;;;0.80;0.80;;;-6.80;99.90;;;;;;5031182;28;20198;-75
2021/11/26 05:01:08;;;;;;;0.90;0.90;;;-6.80;99.90;;;;;;5032280;28;20692;-75
2021/11/26 05:03:33;;;;;;;0.90;0.90;;;-6.80;99.90;;;;;;5014613;28;20197;-75
2021/11/26 05:05:59;;;;;;;0.90;0.90;;;-6.80;99.90;;;;;;5013171;28;20209;-75
2021/11/26 05:08:26;;;;;;;0.90;0.90;;;-6.80;99.90;;;;;;5014266;28;20642;-75
2021/11/26 05:10:53;;;;;;;1.00;1.00;;;-6.80;99.90;;;;;;5031159;28;20661;-76
2021/11/26 05:13:26;;;;;;;0.90;0.90;;;-6.80;99.90;;;;;;5032036;28;20563;-74
2021/11/26 05:15:52;;;;;;;1.10;1.10;;;-6.80;99.90;;;;;;5014354;28;20228;-74
2021/11/26 05:18:23;;;;;;;1.00;1.00;;;-6.80;99.90;;;;;;5031088;28;20697;-75
2021/11/26 05:20:51;;;;;;;1.00;1.00;;;-6.80;99.90;;;;;;5013046;28;20198;-75
2021/11/26 05:23:17;;;;;;;0.80;0.80;;;-6.80;99.90;;;;;;5031506;28;20209;-75
2021/11/26 05:25:43;;;;;;;1.00;1.00;;;-6.80;99.90;;;;;;5031378;28;20213;-76
2021/11/26 05:28:08;;;;;;;0.80;0.80;;;-6.80;99.90;;;;;;5032221;28;20206;-76
2021/11/26 05:30:34;;;;;;;0.97;0.97;;;-6.80;99.90;;;;;;5032277;28;20210;-76
2021/11/26 05:33:01;;;;;;;0.90;0.90;;;-6.80;99.90;;;;;;5031074;28;20209;-76
2021/11/26 05:35:27;;;;;;;1.00;1.00;;;-6.80;99.90;;;;;;5013328;28;20309;-76
2021/11/26 05:37:52;;;;;;;1.00;1.00;;;-6.80;99.90;;;;;;5014583;28;20202;-75
2021/11/26 05:40:19;;;;;;;0.90;0.90;;;-6.80;99.90;;;;;;5030779;28;20194;-74
2021/11/26 05:42:46;;;;;;;0.90;0.90;;;-6.80;99.90;;;;;;5013132;28;20198;-76
2021/11/26 05:45:14;;;;;;;1.00;1.00;;;-6.80;99.90;;;;;;5013300;28;20201;-78
2021/11/26 05:47:40;;;;;;;1.00;1.00;;;-6.80;99.90;;;;;;5013713;28;20673;-78
2021/11/26 05:50:08;;;;;;;1.00;1.00;;;-6.80;99.90;;;;;;5032312;28;20664;-75
2021/11/26 05:52:35;;;;;;;1.00;1.00;;;-6.80;99.90;;;;;;5012856;28;20201;-77
2021/11/26 05:55:01;;;;;;;1.00;1.00;;;-6.70;99.90;;;;;;5030871;28;20301;-77
2021/11/26 05:57:27;;;;;;;0.90;0.90;;;-6.70;99.90;;;;;;5012912;28;20218;-76
2021/11/26 05:59:53;;;;;;;1.00;1.00;;;-6.70;99.90;;;;;;5030781;28;20198;-77
2021/11/26 06:02:18;;;;;;;0.93;0.93;;;-6.70;99.90;;;;;;5030462;28;20194;-75
2021/11/26 06:04:44;;;;;;;1.00;1.00;;;-6.70;99.90;;;;;;5031858;28;20198;-75
2021/11/26 06:07:10;;;;;;;0.80;0.80;;;-6.60;99.90;;;;;;5030414;28;20722;-76
2021/11/26 06:09:35;;;;;;;0.93;0.93;;;-6.60;99.90;;;;;;5012010;28;20260;-75
2021/11/26 06:12:01;;;;;;;0.90;0.90;;;-6.60;99.90;;;;;;5029952;28;20255;-76
2021/11/26 06:14:27;;;;;;;1.00;1.00;;;-6.60;99.90;;;;;;5030330;28;20672;-74
2021/11/26 06:16:52;;;;;;;0.80;0.80;;;-6.60;99.90;;;;;;5030975;28;20203;-76
2021/11/26 06:19:18;;;;;;;0.87;0.87;;;-6.60;99.90;;;;;;5030307;28;20267;-75
2021/11/26 06:21:44;;;;;;;0.90;0.90;;;-6.50;99.90;;;;;;5012437;28;20233;-77
2021/11/26 06:24:10;;;;;;;0.90;0.90;;;-6.60;99.90;;;;;;5030170;28;20212;-78
2021/11/26 06:26:35;;;;;;;1.00;1.00;;;-6.50;99.90;;;;;;5033129;28;20279;-78
2021/11/26 06:29:01;;;;;;;0.80;0.80;;;-6.50;99.90;;;;;;5034053;28;20213;-77
2021/11/26 06:31:27;;;;;;;0.83;0.83;;;-6.50;99.90;;;;;;5017256;28;20205;-78
2021/11/26 06:33:52;;;;;;;0.90;0.90;;;-6.50;99.90;;;;;;5033944;28;20285;-76
2021/11/26 06:36:18;;;;;;;0.90;0.90;;;-6.50;99.90;;;;;;5035170;28;20236;-74
2021/11/26 06:38:44;;;;;;;1.00;1.00;;;-6.60;99.90;;;;;;5035305;28;20650;-77
2021/11/26 06:41:09;;;;;;;0.90;0.90;;;-6.60;99.90;;;;;;5035008;28;20194;-77
2021/11/26 06:43:35;;;;;;;0.83;0.83;;;-6.60;99.90;;;;;;5033861;28;20285;-77
2021/11/26 06:46:01;;;;;;;0.90;0.90;;;-6.60;99.90;;;;;;5034997;28;20748;-75
2021/11/26 06:48:27;;;;;;;1.10;1.10;;;-6.60;99.90;;;;;;5033542;28;20202;-77
2021/11/26 06:50:53;;;;;;;1.00;1.00;;;-6.60;99.90;;;;;;5033752;28;20198;-77
2021/11/26 06:53:19;;;;;;;1.73;1.63;;;-6.60;99.90;;;;;;5033489;28;20248;-74
2021/11/26 06:55:45;;;;;;;1.00;1.00;;;-6.70;99.90;;;;;;5033731;28;20222;-76
2021/11/26 06:58:11;;;;;;;0.90;0.90;;;-6.70;99.90;;;;;;5034791;28;20692;-76
2021/11/26 07:00:37;;;;;;;1.00;1.00;;;-6.70;99.90;;;;;;5033861;28;20260;-76
2021/11/26 07:03:03;;;;;;;0.97;0.97;;;-6.70;99.90;;;;;;5033601;28;20601;-77
2021/11/26 07:05:28;;;;;;;0.93;0.93;;;-6.70;99.90;;;;;;5033436;28;20201;-76
2021/11/26 07:07:54;;;;;;;1.00;1.00;;;-6.70;99.90;;;;;;5033091;28;20686;-76
2021/11/26 07:10:20;;;;;;;1.00;1.00;;;-6.70;99.90;;;;;;5033330;28;20269;-76
2021/11/26 07:12:46;;;;;;;0.90;0.90;;;-6.60;99.90;;;;;;5033327;28;20210;-78
2021/11/26 07:15:13;;;;;;;1.00;1.00;;;-6.60;99.90;;;;;;5034461;28;20206;-76
2021/11/26 07:17:39;;;;;;;1.00;1.00;;;-6.60;99.90;;;;;;5034456;28;20202;-76
2021/11/26 07:20:06;;;;;;;1.00;1.00;;;-6.50;99.90;;;;;;5033270;28;20210;-76
2021/11/26 07:22:32;;;;;;;0.90;0.90;;;-6.50;99.90;;;;;;5015144;28;20773;-76
2021/11/26 07:24:58;;;;;;;0.90;0.90;;;-6.50;99.90;;;;;;5034348;28;20206;-77
2021/11/26 07:27:24;;;;;;;0.97;0.97;;;-6.40;99.90;;;;;;5032915;28;20206;-75
2021/11/26 07:29:51;;;;;;;0.90;0.90;;;-6.40;99.90;;;;;;5033216;28;20216;-76
2021/11/26 07:32:17;;;;;;;1.00;1.00;;;-6.40;99.90;;;;;;5034394;28;20638;-75
2021/11/26 07:34:43;;;;;;;4.00;2.20;;;-6.40;99.90;;;;;;5032800;28;20293;-76
2021/11/26 07:37:10;;;;;;;0.83;0.83;;;-6.40;99.90;;;;;;5032099;28;20194;-75
2021/11/26 07:39:37;;;;;;;0.90;0.90;;;-6.40;99.90;;;;;;5016211;28;20253;-75
2021/11/26 07:42:05;;;;;;;0.90;0.90;;;-6.30;99.90;;;;;;5015053;28;20202;-76
2021/11/26 07:44:33;;;;;;;0.90;0.90;;;-6.30;99.90;;;;;;5032749;28;20233;-75
2021/11/26 07:46:59;;;;;;;0.93;0.93;;;-6.40;99.90;;;;;;5032885;28;20190;-75
2021/11/26 07:49:28;;;;;;;0.80;0.80;;;-6.40;99.90;;;;;;5031914;28;20301;-76
2021/11/26 07:51:56;;;;;;;0.90;0.90;;;-6.40;99.90;;;;;;5032366;28;20684;-75
2021/11/26 07:54:22;;;;;;;1.53;1.43;;;-6.40;99.90;;;;;;5032828;28;20728;-77
2021/11/26 07:56:47;;;;;;;1.05;1.05;;;-6.40;99.90;;;;;;5032663;28;20233;-76
2021/11/26 07:59:13;;;;;;;1.00;1.00;;;-6.40;99.90;;;;;;5014663;28;20727;-77
2021/11/26 08:01:39;;;;;;;0.90;0.90;;;-6.50;99.90;;;;;;5014370;28;20206;-78
2021/11/26 08:04:04;;;;;;;0.80;0.80;;;-6.50;99.90;;;;;;5033748;28;20207;-76
2021/11/26 08:06:31;;;;;;;1.00;1.00;;;-6.50;99.90;;;;;;5032052;28;20553;-77
2021/11/26 08:08:56;;;;;;;0.90;0.90;;;-6.50;99.90;;;;;;5032140;28;20611;-77
2021/11/26 08:11:22;;;;;;;1.00;1.00;;;-6.40;99.90;;;;;;5014377;28;20206;-75
2021/11/26 08:13:48;;;;;;;1.20;1.20;;;-6.40;99.90;;;;;;5015748;28;20206;-78
2021/11/26 08:16:13;;;;;;;0.90;0.90;;;-6.40;99.90;;;;;;5014430;28;20237;-78
2021/11/26 08:18:39;;;;;;;1.13;1.07;;;-6.30;99.90;;;;;;5014579;28;20202;-78
2021/11/26 08:21:05;;;;;;;1.00;1.00;;;-6.30;99.90;;;;;;5033918;28;20201;-77
2021/11/26 08:23:31;;;;;;;0.98;0.98;;;-6.20;99.90;;;;;;5032224;28;20206;-76
2021/11/26 08:25:59;;;;;;;1.00;1.00;;;-6.10;99.90;;;;;;5014081;28;20264;-77
2021/11/26 08:28:27;;;;;;;0.83;0.83;;;-6.10;99.90;;;;;;5031824;28;20198;-77
2021/11/26 08:30:54;;;;;;;1.20;1.20;;;-6.00;99.90;;;;;;5033347;28;20198;-76
2021/11/26 08:33:19;;;;;;;1.00;1.00;;;-6.00;99.90;;;;;;5033425;28;20780;-75
2021/11/26 08:35:45;;;;;;;0.90;0.90;;;-5.90;99.90;;;;;;5031975;28;20202;-76
2021/11/26 08:38:11;;;;;;;1.47;1.37;;;-5.90;99.90;;;;;;5015327;28;20313;-76
2021/11/26 08:40:36;;;;;;;0.93;0.93;;;-5.90;99.90;;;;;;5033033;28;20218;-76
2021/11/26 08:43:02;;;;;;;1.60;1.50;;;-5.80;99.90;;;;;;5031713;28;20747;-76
2021/11/26 08:45:28;;;;;;;1.00;1.00;;;-5.80;99.90;;;;;;5031586;28;20222;-77
2021/11/26 08:47:54;;;;;;;0.90;0.90;;;-5.80;99.90;;;;;;5015162;28;20194;-77
2021/11/26 08:50:21;;;;;;;0.90;0.90;;;-5.70;99.90;;;;;;5031386;28;20194;-76
2021/11/26 08:52:48;;;;;;;0.80;0.80;;;-5.70;99.90;;;;;;5031924;28;20248;-77
2021/11/26 08:55:17;;;;;;;1.00;1.00;;;-5.60;99.90;;;;;;5013980;28;20212;-76
2021/11/26 08:57:50;;;;;;;1.03;1.03;;;-5.60;99.90;;;;;;5015804;28;20244;-76
2021/11/26 09:00:17;;;;;;;0.90;0.90;;;-5.60;99.90;;;;;;5031089;28;20293;-75
2021/11/26 09:02:43;;;;;;;0.90;0.90;;;-5.60;99.90;;;;;;5031280;28;20680;-75
2021/11/26 09:05:09;;;;;;;0.90;0.90;;;-5.60;99.90;;;;;;5013674;28;20202;-74
2021/11/26 09:07:34;;;;;;;0.90;0.90;;;-5.60;99.90;;;;;;5013314;28;20300;-77
2021/11/26 09:10:00;;;;;;;1.00;1.00;;;-5.60;99.90;;;;;;4991158;28;20235;-77
2021/11/26 09:12:28;;;;;;;0.80;0.80;;;-5.60;99.90;;;;;;4990750;28;20216;-76
2021/11/26 09:14:54;;;;;;;1.53;1.43;;;-5.60;99.90;;;;;;4991052;28;20690;-76
2021/11/26 09:17:20;;;;;;;0.77;0.77;;;-5.70;99.90;;;;;;4987816;28;20196;-75
2021/11/26 09:19:46;;;;;;;0.98;0.98;;;-5.70;99.90;;;;;;4991674;28;20200;-76
2021/11/26 09:22:12;;;;;;;0.87;0.87;;;-5.70;99.90;;;;;;4990419;28;20199;-77
2021/11/26 09:24:38;;;;;;;0.98;0.98;;;-5.80;99.90;;;;;;4990220;28;20207;-77
2021/11/26 09:27:04;;;;;;;0.90;0.90;;;-5.80;99.90;;;;;;4990494;28;20222;-76
2021/11/26 09:29:30;;;;;;;1.00;1.00;;;-5.80;99.90;;;;;;4990305;28;20207;-77
2021/11/26 09:31:56;;;;;;;0.90;0.90;;;-5.90;99.90;;;;;;4990514;28;20211;-77
2021/11/26 09:34:22;;;;;;;0.93;0.93;;;-5.90;99.90;;;;;;4991387;28;20214;-77
2021/11/26 09:36:48;;;;;;;0.90;0.90;;;-5.90;99.90;;;;;;4991944;28;20265;-75
2021/11/26 09:39:13;;;;;;;0.90;0.90;;;-5.90;99.90;;;;;;4991924;28;20207;-76
2021/11/26 09:41:39;;;;;;;2.20;1.63;;;-5.90;99.90;;;;;;4991741;28;21419;-76
2021/11/26 09:44:07;;;;;;;1.00;1.00;;;-5.90;99.90;;;;;;4993157;28;20337;-76
2021/11/26 09:46:38;;;;;;;1.00;1.00;;;-5.80;99.90;;;;;;4990518;28;20203;-76
2021/11/26 09:49:05;;;;;;;0.80;0.80;;;-5.80;99.90;;;;;;4993056;28;20273;-77
2021/11/26 09:51:31;;;;;;;0.90;0.90;;;-5.80;99.90;;;;;;4991316;28;20210;-76
2021/11/26 09:53:57;;;;;;;0.90;0.90;;;-5.70;99.90;;;;;;4991657;28;20579;-77
2021/11/26 09:56:23;;;;;;;1.47;1.37;;;-5.70;99.90;;;;;;4991532;28;20211;-76
2021/11/26 09:58:49;;;;;;;0.90;0.90;;;-5.60;99.90;;;;;;4991698;28;20240;-76
2021/11/26 10:01:15;;;;;;;0.90;0.90;;;-5.50;99.90;;;;;;4993935;28;20207;-75
2021/11/26 10:03:42;;;;;;;0.80;0.80;;;-5.40;99.90;;;;;;4994097;28;20340;-77
2021/11/26 10:06:44;;;;;;;0.90;0.90;;;-5.20;99.90;;;;;;4997027;28;20211;-76
2021/11/26 10:09:14;;;;;;;1.00;1.00;;;-5.10;99.90;;;;;;5006449;28;20218;-76
2021/11/26 10:12:04;;;;;;;1.00;1.00;;;-5.00;99.90;;;;;;5020190;28;20210;-76
2021/11/26 10:14:39;;;;;;;0.90;0.90;;;-4.90;99.90;;;;;;5017828;28;20214;-75
2021/11/26 10:17:14;;;;;;;0.80;0.80;;;-4.80;99.90;;;;;;5035794;28;20279;-76
2021/11/26 10:19:45;;;;;;;1.00;1.00;;;-4.80;99.90;;;;;;5016636;28;20343;-76
2021/11/26 10:22:13;;;;;;;0.80;0.80;;;-4.80;99.90;;;;;;5016549;28;20202;-75
2021/11/26 10:24:39;;;;;;;0.82;0.82;;;-4.80;99.90;;;;;;5034078;28;20217;-78
2021/11/26 10:27:05;;;;;;;0.80;0.80;;;-4.80;99.90;;;;;;5035143;28;20678;-77
2021/11/26 10:29:36;;;;;;;0.90;0.90;;;-4.80;99.90;;;;;;5034297;28;20198;-77
2021/11/26 10:32:11;;;;;;;0.95;0.95;;;-4.80;99.90;;;;;;5034432;28;20199;-76
2021/11/26 10:34:39;;;;;;;0.90;0.90;;;-4.70;99.90;;;;;;5017580;28;20684;-75
2021/11/26 10:37:06;;;;;;;0.80;0.80;;;-4.60;99.90;;;;;;5034322;28;20214;-75
2021/11/26 10:39:33;;;;;;;0.80;0.80;;;-4.50;99.90;;;;;;5000706;28;20581;-75
2021/11/26 10:42:00;;;;;;;7.35;2.75;;;-4.40;99.90;;;;;;5034698;28;20559;-73
2021/11/26 10:57:41;;;;;;;0.90;0.90;;;-4.30;99.90;;;;;;5017513;28;20517;-75
2021/11/26 11:00:19;;;;;;;0.90;0.90;;;-4.30;99.90;;;;;;5016840;28;20199;-73
2021/11/26 11:02:47;;;;;;;0.82;0.82;;;-4.20;99.90;;;;;;5018841;28;20202;-74
2021/11/26 11:05:34;;;;;;;0.93;0.93;;;-4.10;99.90;;;;;;5016497;28;20199;-73
2021/11/26 11:08:02;;;;;;;0.80;0.80;;;-4.00;99.90;;;;;;5000877;28;20218;-77
2021/11/26 11:10:34;;;;;;;0.80;0.80;;;-4.00;99.90;;;;;;5015670;28;20626;-75
2021/11/26 11:13:26;;;;;;;0.80;0.80;;;-3.90;99.90;;;;;;5017001;28;20726;-77
2021/11/26 11:15:51;;;;;;;1.00;1.00;;;-3.90;99.90;;;;;;5019830;28;20244;-77
2021/11/26 11:18:18;;;;;;;0.95;0.95;;;-3.90;99.90;;;;;;5015745;28;20201;-77
2021/11/26 11:20:45;;;;;;;0.80;0.80;;;-3.80;99.90;;;;;;5034448;28;20197;-75
2021/11/26 11:23:15;;;;;;;0.90;0.90;;;-3.70;99.90;;;;;;5033718;28;20217;-76
2021/11/26 11:25:41;;;;;;;0.93;0.93;;;-3.70;99.90;;;;;;5015866;28;20675;-77
2021/11/26 11:28:09;;;;;;;0.88;0.88;;;-3.60;99.90;;;;;;5034945;28;20207;-77
2021/11/26 11:30:37;;;;;;;0.80;0.80;;;-3.60;99.90;;;;;;5033661;28;20205;-76
2021/11/26 11:33:03;;;;;;;0.88;0.88;;;-3.50;99.90;;;;;;5016178;28;20210;-76
2021/11/26 11:35:31;;;;;;;0.88;0.88;;;-3.60;99.90;;;;;;5033617;28;20206;-77
2021/11/26 11:38:00;;;;;;;0.85;0.85;;;-3.60;99.90;;;;;;5015582;28;20202;-76
2021/11/26 11:40:40;;;;;;;0.85;0.85;;;-3.60;99.90;;;;;;5033414;28;20751;-76
2021/11/26 11:43:09;;;;;;;0.90;0.90;;;-3.50;99.90;;;;;;5033526;28;20225;-76
2021/11/26 11:45:36;;;;;;;0.80;0.80;;;-3.50;99.90;;;;;;5034632;28;20198;-77
2021/11/26 11:48:05;;;;;;;0.90;0.90;;;-3.50;99.90;;;;;;5034275;28;20661;-77
2021/11/26 11:50:39;;;;;;;0.80;0.80;;;-3.60;99.90;;;;;;5033099;28;20202;-76
2021/11/26 11:53:04;;;;;;;0.75;0.75;;;-3.60;99.90;;;;;;5033270;28;20213;-75
2021/11/26 11:55:30;;;;;;;0.90;0.90;;;-3.60;99.90;;;;;;5033247;28;20202;-76
2021/11/26 11:58:16;;;;;;;0.85;0.85;;;-3.60;99.90;;;;;;5033312;28;20202;-76
2021/11/26 12:00:45;;;;;;;0.75;0.75;;;-3.50;99.90;;;;;;5034227;28;20672;-75
2021/11/26 12:03:17;;;;;;;0.90;0.90;;;-3.50;99.90;;;;;;5033219;28;20205;-76
2021/11/26 12:06:04;;;;;;;0.90;0.90;;;-3.50;99.90;;;;;;5032760;28;20657;-74
2021/11/26 12:08:31;;;;;;;0.80;0.80;;;-3.50;99.90;;;;;;5015889;28;20261;-76
2021/11/26 12:10:59;;;;;;;0.88;0.88;;;-3.50;99.90;;;;;;5033171;28;20293;-75
2021/11/26 12:13:27;;;;;;;0.80;0.80;;;-3.60;99.90;;;;;;5014540;28;20704;-76
2021/11/26 12:16:15;;;;;;;0.80;0.80;;;-3.60;99.90;;;;;;5015899;28;20253;-75
2021/11/26 12:18:48;;;;;;;1.00;1.00;;;-3.60;99.90;;;;;;5032364;28;20210;-76
2021/11/26 12:21:17;;;;;;;0.80;0.80;;;-3.60;99.90;;;;;;5033852;28;20210;-78
2021/11/26 12:24:03;;;;;;;0.80;0.80;;;-3.70;99.90;;;;;;5032430;28;20291;-76
2021/11/26 12:26:57;;;;;;;0.73;0.73;;;-3.70;99.90;;;;;;5032355;28;20206;-76
2021/11/26 12:29:47;;;;;;;0.90;0.90;;;-3.60;99.90;;;;;;5032531;28;20232;-77
2021/11/26 12:32:18;;;;;;;0.65;0.65;;;-3.60;99.90;;;;;;5015069;28;20309;-78
2021/11/26 12:34:52;;;;;;;0.80;0.80;;;-3.70;99.90;;;;;;5032979;28;20206;-78
2021/11/26 12:37:24;;;;;;;0.80;0.80;;;-3.70;99.90;;;;;;5032612;28;20747;-73
2021/11/26 12:39:53;;;;;;;0.80;0.80;;;-3.80;99.90;;;;;;5032274;28;20672;-75
2021/11/26 12:42:19;;;;;;;0.90;0.90;;;-3.90;99.90;;;;;;5013566;28;20260;-75
2021/11/26 12:45:06;;;;;;;0.80;0.80;;;-4.00;99.90;;;;;;5031986;28;20739;-76
2021/11/26 12:47:45;;;;;;;0.80;0.80;;;-4.10;99.90;;;;;;5031670;28;20198;-76
2021/11/26 12:53:13;;;;;;;1.00;1.00;;;-4.20;99.90;;;;;;5015105;28;20775;-74
2021/11/26 12:55:53;;;;;;;0.77;0.77;;;-4.20;99.90;;;;;;5031966;28;20202;-75
2021/11/26 12:58:20;;;;;;;0.80;0.80;;;-4.30;99.90;;;;;;5016332;28;20204;-75
2021/11/26 13:00:54;;;;;;;0.90;0.90;;;-4.30;99.90;;;;;;5014453;28;20754;-78
2021/11/26 13:03:20;;;;;;;0.90;0.90;;;-4.40;99.90;;;;;;5015198;28;20203;-78
2021/11/26 13:05:55;;;;;;;0.85;0.85;;;-4.40;99.90;;;;;;5015650;28;20229;-79
2021/11/26 13:08:21;;;;;;;1.00;1.00;;;-4.50;99.90;;;;;;5013595;28;20230;-77